Hersey, MI (49639)

1:30 PM EDT on April 21, 2018 (GMT -0400)
Hersey Township | | Change Station
Active Advisory: Flood Advisory Active Notice: Flood Advisory

Elev 1004 ft 43.82 °N, 85.41 °W | Updated 4 seconds ago

Clear
Clear
55.8 °F
Feels Like 55.8 °F
N
2.9
Wind Variable Wind from SW
Gusts 4.0 mph

Today
High -- | Low -- °F
--% Chance of Precip.
Yesterday
High -- | Low -- °F
Precip. -- in
Pressure 30.43 in
Visibility 10.0 miles
Clouds Clear
Dew Point 24 °F
Humidity 29%
Rainfall 0.00 in
Snow Depth Not available.
6:48 AM 8:32 PM
Waxing Crescent, 37% visible
METAR KRQB 211715Z AUTO 00000KT 10SM CLR 12/M13 A3043 RMK AO2 T01161135
Pressure 30.43 in
Visibility 10.0 miles
Clouds Clear
Dew Point 24 °F
Humidity 29%
Rainfall 0.00 in
Snow Depth Not available.
6:48 AM 8:32 PM
Waxing Crescent, 37% visible
METAR KRQB 211715Z AUTO 00000KT 10SM CLR 12/M13 A3043 RMK AO2 T01161135

Get Your Daily Forecast Email!

Thanks for signing up!

Be on the lookout for a verification email in your inbox.

You'll start receiving severe weather alerts in your inbox..

×

10-Day Weather Forecast

Almanac

Astronomy

Apr. 21, 2018 Rise Set
Actual Time
Civil Twilight
Nautical Twilight
Astronomical Twilight
Moon
Length of Visible Light
Length of Day
Tomorrow will be .
, % of the Moon is Illuminated

Today's Extremes

State Highs State Lows

Community

WunderPhotos

Category 6

Welcome to Category 6. This is the collective home for Weather Underground's featured writeups by Dr. Jeff Masters (right), Bob Henson (left), Chris Burt, and other regular contributors.

Nearby

Air Quality

  Air Quality AQ Index Pollutant
Not available.

Snow Depth

Station Depth Elevation

Earthquake Activity

City Distance Mag. Time & Date
Minimum magnitude displayed is 2.5.

Coastal Water Temperatures

Place Temperature

Stations

Nearby Weather Stations

Station Location Temp. Windchill Dew Point Humidity Wind Precip. Elev Updated Type
                   

Watches & Warnings

Flood Advisory
Issued: 10:25 AM EDT Apr. 21, 2018 – National Weather Service

The National Weather Service in Grand Rapids has issued a
* flood advisory for
the Muskegon river at Evart.
* Until Wednesday evening.
* At 09 am Saturday the stage was 10.1 feet.
* Bankfull stage is 10.0 feet.
* Flood stage is 12.0 feet.
* Forecast, the river will likely rise to 10.3 feet by Monday
morning, but could rise as high as 10.5 feet.
* Impact, at 10.5 feet... flood waters begin to surround homes
upstream of Evart in the jeffery subdivision along Linden and
Riverside roads. Portions of Linden and Riverside roads in the
jeffery subdivision begin to go underwater. High water also begins
to cover Trout drive in the doc and Tom subdivision located just
east of M-66 off of 9 mile Road.


Lat... Lon 4390 8537 4395 8527 4398 8515 4391 8515
      4387 8523 4384 8532